sensor_id;sensor_type;location;lat;lon;timestamp;pressure;altitude;pressure_sealevel;temperature;humidity
72975;BME280;61166;54.228;37.632;2022-10-18T00:02:18;100186.41;;;6.61;nan
72975;BME280;61166;54.228;37.632;2022-10-18T00:04:45;100187.41;;;6.60;nan
72975;BME280;61166;54.228;37.632;2022-10-18T00:07:11;100189.03;;;6.53;nan
72975;BME280;61166;54.228;37.632;2022-10-18T00:09:38;100185.91;;;6.49;nan
72975;BME280;61166;54.228;37.632;2022-10-18T00:12:05;100178.38;;;6.38;nan
72975;BME280;61166;54.228;37.632;2022-10-18T00:14:31;100177.41;;;6.31;nan
72975;BME280;61166;54.228;37.632;2022-10-18T00:16:58;100175.06;;;6.20;nan
72975;BME280;61166;54.228;37.632;2022-10-18T00:19:24;100167.09;;;6.21;nan
72975;BME280;61166;54.228;37.632;2022-10-18T00:21:54;100170.16;;;6.17;nan
72975;BME280;61166;54.228;37.632;2022-10-18T00:24:21;100166.63;;;6.34;nan
72975;BME280;61166;54.228;37.632;2022-10-18T00:26:47;100170.03;;;6.26;nan
72975;BME280;61166;54.228;37.632;2022-10-18T00:29:14;100168.72;;;6.22;nan
72975;BME280;61166;54.228;37.632;2022-10-18T00:31:42;100175.28;;;6.35;nan
72975;BME280;61166;54.228;37.632;2022-10-18T00:34:12;100174.78;;;6.39;nan
72975;BME280;61166;54.228;37.632;2022-10-18T00:36:39;100177.22;;;6.41;nan
72975;BME280;61166;54.228;37.632;2022-10-18T00:39:07;100160.25;;;6.37;nan
72975;BME280;61166;54.228;37.632;2022-10-18T00:41:35;100161.88;;;6.38;nan
72975;BME280;61166;54.228;37.632;2022-10-18T00:46:57;100168.56;;;6.24;nan
72975;BME280;61166;54.228;37.632;2022-10-18T00:49:36;100158.59;;;6.19;nan
72975;BME280;61166;54.228;37.632;2022-10-18T00:52:14;100168.72;;;6.22;nan
72975;BME280;61166;54.228;37.632;2022-10-18T00:54:43;100167.09;;;6.21;nan
72975;BME280;61166;54.228;37.632;2022-10-18T00:57:11;100162.97;;;6.11;nan
72975;BME280;61166;54.228;37.632;2022-10-18T00:59:38;100155.00;;;6.20;nan
72975;BME280;61166;54.228;37.632;2022-10-18T01:02:06;100149.09;;;6.10;nan
72975;BME280;61166;54.228;37.632;2022-10-18T01:04:34;100151.41;;;6.21;nan
72975;BME280;61166;54.228;37.632;2022-10-18T01:14:48;100135.38;;;6.08;nan
72975;BME280;61166;54.228;37.632;2022-10-18T01:23:48;100125.63;;;5.84;nan
72975;BME280;61166;54.228;37.632;2022-10-18T01:26:02;100127.78;;;5.89;nan
72975;BME280;61166;54.228;37.632;2022-10-18T01:31:47;100123.16;;;5.75;nan
72975;BME280;61166;54.228;37.632;2022-10-18T01:34:17;100118.56;;;5.69;nan
72975;BME280;61166;54.228;37.632;2022-10-18T01:36:47;100113.66;;;5.66;nan
72975;BME280;61166;54.228;37.632;2022-10-18T01:39:20;100113.03;;;5.72;nan
72975;BME280;61166;54.228;37.632;2022-10-18T01:41:50;100112.06;;;5.81;nan
72975;BME280;61166;54.228;37.632;2022-10-18T01:44:21;100100.97;;;5.79;nan
72975;BME280;61166;54.228;37.632;2022-10-18T01:46:51;100101.31;;;5.84;nan
72975;BME280;61166;54.228;37.632;2022-10-18T01:49:19;100092.50;;;5.85;nan
72975;BME280;61166;54.228;37.632;2022-10-18T01:51:46;100104.13;;;5.90;nan
72975;BME280;61166;54.228;37.632;2022-10-18T01:54:17;100091.25;;;5.89;nan
72975;BME280;61166;54.228;37.632;2022-10-18T01:59:50;100082.47;;;6.06;nan
72975;BME280;61166;54.228;37.632;2022-10-18T02:02:48;100081.53;;;6.23;nan
72975;BME280;61166;54.228;37.632;2022-10-18T02:05:42;100074.69;;;6.39;nan
72975;BME280;61166;54.228;37.632;2022-10-18T02:08:23;100066.53;;;6.58;nan
72975;BME280;61166;54.228;37.632;2022-10-18T02:11:04;100057.69;;;6.59;nan
72975;BME280;61166;54.228;37.632;2022-10-18T02:13:41;100065.69;;;6.74;nan
72975;BME280;61166;54.228;37.632;2022-10-18T02:16:14;100056.03;;;6.90;nan
72975;BME280;61166;54.228;37.632;2022-10-18T02:18:50;100050.09;;;7.13;nan
72975;BME280;61166;54.228;37.632;2022-10-18T02:21:20;100052.19;;;7.25;nan
72975;BME280;61166;54.228;37.632;2022-10-18T02:23:47;100053.44;;;7.38;nan
72975;BME280;61166;54.228;37.632;2022-10-18T02:26:14;100055.88;;;7.47;nan
72975;BME280;61166;54.228;37.632;2022-10-18T02:28:41;100060.41;;;7.53;nan
72975;BME280;61166;54.228;37.632;2022-10-18T02:31:30;100055.28;;;7.60;nan
72975;BME280;61166;54.228;37.632;2022-10-18T02:34:15;100044.16;;;7.66;nan
72975;BME280;61166;54.228;37.632;2022-10-18T02:36:49;100042.16;;;7.68;nan
72975;BME280;61166;54.228;37.632;2022-10-18T02:39:20;100042.13;;;7.76;nan
72975;BME280;61166;54.228;37.632;2022-10-18T02:41:48;100043.88;;;7.84;nan
72975;BME280;61166;54.228;37.632;2022-10-18T02:44:14;100043.22;;;7.90;nan
72975;BME280;61166;54.228;37.632;2022-10-18T02:46:41;100044.16;;;7.97;nan
72975;BME280;61166;54.228;37.632;2022-10-18T02:49:08;100033.03;;;7.95;nan
72975;BME280;61166;54.228;37.632;2022-10-18T02:51:34;100035.59;;;8.03;nan
72975;BME280;61166;54.228;37.632;2022-10-18T02:54:00;100035.25;;;8.06;nan
72975;BME280;61166;54.228;37.632;2022-10-18T02:56:27;100033.63;;;8.05;nan
72975;BME280;61166;54.228;37.632;2022-10-18T02:58:53;100033.72;;;8.12;nan
72975;BME280;61166;54.228;37.632;2022-10-18T03:01:20;100027.66;;;8.11;nan
72975;BME280;61166;54.228;37.632;2022-10-18T03:03:47;100016.34;;;8.11;nan
72975;BME280;61166;54.228;37.632;2022-10-18T03:06:13;100021.72;;;8.17;nan
72975;BME280;61166;54.228;37.632;2022-10-18T03:08:40;100020.25;;;8.15;nan
72975;BME280;61166;54.228;37.632;2022-10-18T03:11:06;100009.44;;;8.18;nan
72975;BME280;61166;54.228;37.632;2022-10-18T03:13:33;100013.56;;;8.12;nan
72975;BME280;61166;54.228;37.632;2022-10-18T03:16:00;100014.50;;;8.19;nan
72975;BME280;61166;54.228;37.632;2022-10-18T03:18:26;100010.19;;;8.26;nan
72975;BME280;61166;54.228;37.632;2022-10-18T03:20:53;100012.88;;;8.18;nan
72975;BME280;61166;54.228;37.632;2022-10-18T03:23:20;100007.28;;;8.21;nan
72975;BME280;61166;54.228;37.632;2022-10-18T03:25:46;99999.59;;;8.20;nan
72975;BME280;61166;54.228;37.632;2022-10-18T03:28:13;100002.03;;;8.21;nan
72975;BME280;61166;54.228;37.632;2022-10-18T03:30:39;99998.06;;;8.25;nan
72975;BME280;61166;54.228;37.632;2022-10-18T03:33:06;99989.69;;;8.30;nan
72975;BME280;61166;54.228;37.632;2022-10-18T03:35:33;99964.28;;;8.31;nan
72975;BME280;61166;54.228;37.632;2022-10-18T03:37:59;99959.72;;;8.33;nan
72975;BME280;61166;54.228;37.632;2022-10-18T03:40:26;99958.03;;;8.40;nan
72975;BME280;61166;54.228;37.632;2022-10-18T03:42:52;99955.56;;;8.38;nan
72975;BME280;61166;54.228;37.632;2022-10-18T03:45:19;99961.28;;;8.42;nan
72975;BME280;61166;54.228;37.632;2022-10-18T03:47:46;99953.06;;;8.45;nan
72975;BME280;61166;54.228;37.632;2022-10-18T03:50:12;99941.94;;;8.43;nan
72975;BME280;61166;54.228;37.632;2022-10-18T03:52:39;99940.75;;;8.45;nan
72975;BME280;61166;54.228;37.632;2022-10-18T03:55:05;99936.34;;;8.46;nan
72975;BME280;61166;54.228;37.632;2022-10-18T03:57:32;99929.47;;;8.45;nan
72975;BME280;61166;54.228;37.632;2022-10-18T03:59:59;99928.47;;;8.46;nan
72975;BME280;61166;54.228;37.632;2022-10-18T04:02:25;99927.84;;;8.44;nan
72975;BME280;61166;54.228;37.632;2022-10-18T04:04:52;99913.28;;;8.41;nan
72975;BME280;61166;54.228;37.632;2022-10-18T04:07:18;99907.84;;;8.43;nan
72975;BME280;61166;54.228;37.632;2022-10-18T04:09:45;99898.13;;;8.28;nan
72975;BME280;61166;54.228;37.632;2022-10-18T04:12:11;99895.06;;;8.25;nan
72975;BME280;61166;54.228;37.632;2022-10-18T04:14:38;99893.44;;;8.24;nan
72975;BME280;61166;54.228;37.632;2022-10-18T04:17:05;99898.84;;;8.22;nan
72975;BME280;61166;54.228;37.632;2022-10-18T04:19:31;99899.47;;;8.24;nan
72975;BME280;61166;54.228;37.632;2022-10-18T04:21:58;99901.00;;;8.19;nan
72975;BME280;61166;54.228;37.632;2022-10-18T04:24:24;99902.19;;;8.16;nan
72975;BME280;61166;54.228;37.632;2022-10-18T04:26:51;99895.31;;;8.15;nan
72975;BME280;61166;54.228;37.632;2022-10-18T04:29:17;99882.75;;;8.11;nan
72975;BME280;61166;54.228;37.632;2022-10-18T04:31:44;99886.91;;;8.05;nan
72975;BME280;61166;54.228;37.632;2022-10-18T04:34:12;99880.75;;;7.98;nan
72975;BME280;61166;54.228;37.632;2022-10-18T04:36:38;99866.59;;;8.07;nan
72975;BME280;61166;54.228;37.632;2022-10-18T04:39:05;99866.66;;;7.99;nan
72975;BME280;61166;54.228;37.632;2022-10-18T04:41:31;99860.25;;;8.02;nan
72975;BME280;61166;54.228;37.632;2022-10-18T04:43:58;99856.19;;;7.99;nan
72975;BME280;61166;54.228;37.632;2022-10-18T04:46:24;99859.34;;;7.94;nan
72975;BME280;61166;54.228;37.632;2022-10-18T04:48:51;99862.34;;;8.06;nan
72975;BME280;61166;54.228;37.632;2022-10-18T04:51:17;99859.97;;;8.11;nan
72975;BME280;61166;54.228;37.632;2022-10-18T04:53:44;99862.09;;;8.31;nan
72975;BME280;61166;54.228;37.632;2022-10-18T04:56:10;99856.16;;;8.51;nan
72975;BME280;61166;54.228;37.632;2022-10-18T04:58:37;99857.97;;;8.66;nan
72975;BME280;61166;54.228;37.632;2022-10-18T05:01:05;99847.34;;;8.88;nan
72975;BME280;61166;54.228;37.632;2022-10-18T05:03:32;99843.13;;;9.09;nan
72975;BME280;61166;54.228;37.632;2022-10-18T05:05:58;99847.56;;;9.08;nan
72975;BME280;61166;54.228;37.632;2022-10-18T05:08:29;99844.31;;;9.06;nan
72975;BME280;61166;54.228;37.632;2022-10-18T05:10:56;99831.59;;;8.88;nan
72975;BME280;61166;54.228;37.632;2022-10-18T05:13:23;99841.28;;;8.73;nan
72975;BME280;61166;54.228;37.632;2022-10-18T05:15:50;99845.84;;;8.65;nan
72975;BME280;61166;54.228;37.632;2022-10-18T05:18:16;99841.25;;;8.52;nan
72975;BME280;61166;54.228;37.632;2022-10-18T05:20:43;99833.09;;;8.47;nan
72975;BME280;61166;54.228;37.632;2022-10-18T05:23:09;99829.50;;;8.48;nan
72975;BME280;61166;54.228;37.632;2022-10-18T05:25:40;99840.25;;;8.53;nan
72975;BME280;61166;54.228;37.632;2022-10-18T05:28:07;99839.25;;;8.54;nan
72975;BME280;61166;54.228;37.632;2022-10-18T05:30:54;99828.13;;;8.52;nan
72975;BME280;61166;54.228;37.632;2022-10-18T05:33:21;99834.91;;;8.46;nan
72975;BME280;61166;54.228;37.632;2022-10-18T05:35:48;99823.72;;;8.38;nan
72975;BME280;61166;54.228;37.632;2022-10-18T05:38:14;99810.22;;;8.26;nan
72975;BME280;61166;54.228;37.632;2022-10-18T05:40:41;99816.25;;;8.26;nan
72975;BME280;61166;54.228;37.632;2022-10-18T05:43:07;99812.03;;;8.25;nan
72975;BME280;61166;54.228;37.632;2022-10-18T05:45:34;99812.03;;;8.25;nan
72975;BME280;61166;54.228;37.632;2022-10-18T05:48:00;99815.56;;;8.33;nan
72975;BME280;61166;54.228;37.632;2022-10-18T05:50:27;99813.38;;;8.21;nan
72975;BME280;61166;54.228;37.632;2022-10-18T05:52:57;99808.34;;;8.35;nan
72975;BME280;61166;54.228;37.632;2022-10-18T05:55:37;99818.19;;;8.62;nan
72975;BME280;61166;54.228;37.632;2022-10-18T05:58:04;99813.94;;;8.61;nan
72975;BME280;61166;54.228;37.632;2022-10-18T06:00:31;99795.31;;;8.56;nan
72975;BME280;61166;54.228;37.632;2022-10-18T06:02:57;99776.34;;;8.54;nan
72975;BME280;61166;54.228;37.632;2022-10-18T06:05:26;99774.34;;;8.56;nan
72975;BME280;61166;54.228;37.632;2022-10-18T06:07:52;99770.00;;;8.48;nan
72975;BME280;61166;54.228;37.632;2022-10-18T06:10:19;99782.47;;;8.61;nan
72975;BME280;61166;54.228;37.632;2022-10-18T06:12:46;99773.38;;;8.78;nan
72975;BME280;61166;54.228;37.632;2022-10-18T06:15:12;99758.97;;;8.89;nan
72975;BME280;61166;54.228;37.632;2022-10-18T06:17:39;99760.13;;;8.86;nan
72975;BME280;61166;54.228;37.632;2022-10-18T06:20:06;99761.13;;;8.85;nan
72975;BME280;61166;54.228;37.632;2022-10-18T06:22:33;99756.28;;;9.04;nan
72975;BME280;61166;54.228;37.632;2022-10-18T06:24:59;99758.41;;;9.15;nan
72975;BME280;61166;54.228;37.632;2022-10-18T06:27:26;99756.78;;;9.14;nan
72975;BME280;61166;54.228;37.632;2022-10-18T06:29:52;99755.41;;;9.18;nan
72975;BME280;61166;54.228;37.632;2022-10-18T06:32:19;99763.13;;;9.26;nan
72975;BME280;61166;54.228;37.632;2022-10-18T06:34:45;99753.88;;;9.30;nan
72975;BME280;61166;54.228;37.632;2022-10-18T06:37:12;99755.88;;;9.28;nan
72975;BME280;61166;54.228;37.632;2022-10-18T06:39:38;99759.75;;;9.32;nan
72975;BME280;61166;54.228;37.632;2022-10-18T06:42:05;99759.00;;;9.38;nan
72975;BME280;61166;54.228;37.632;2022-10-18T06:44:31;99745.88;;;9.38;nan
72975;BME280;61166;54.228;37.632;2022-10-18T06:46:58;99734.34;;;9.11;nan
72975;BME280;61166;54.228;37.632;2022-10-18T06:49:24;99739.59;;;9.11;nan
72975;BME280;61166;54.228;37.632;2022-10-18T06:51:52;99731.31;;;9.08;nan
72975;BME280;61166;54.228;37.632;2022-10-18T06:54:19;99730.25;;;9.02;nan
72975;BME280;61166;54.228;37.632;2022-10-18T06:56:45;99724.13;;;8.95;nan
72975;BME280;61166;54.228;37.632;2022-10-18T06:59:12;99718.69;;;8.97;nan
72975;BME280;61166;54.228;37.632;2022-10-18T07:01:39;99718.94;;;9.02;nan
72975;BME280;61166;54.228;37.632;2022-10-18T07:04:05;99709.69;;;9.06;nan
72975;BME280;61166;54.228;37.632;2022-10-18T07:06:32;99703.25;;;9.08;nan
72975;BME280;61166;54.228;37.632;2022-10-18T07:08:58;99702.19;;;9.03;nan
72975;BME280;61166;54.228;37.632;2022-10-18T07:11:25;99690.31;;;9.07;nan
72975;BME280;61166;54.228;37.632;2022-10-18T07:13:54;99691.00;;;9.15;nan
72975;BME280;61166;54.228;37.632;2022-10-18T07:16:23;99684.19;;;9.21;nan
72975;BME280;61166;54.228;37.632;2022-10-18T07:18:50;99680.97;;;9.25;nan
72975;BME280;61166;54.228;37.632;2022-10-18T07:21:19;99647.44;;;9.21;nan
72975;BME280;61166;54.228;37.632;2022-10-18T07:23:46;99653.41;;;9.08;nan
72975;BME280;61166;54.228;37.632;2022-10-18T07:26:30;99634.63;;;8.83;nan
72975;BME280;61166;54.228;37.632;2022-10-18T07:29:07;99631.97;;;8.55;nan
72975;BME280;61166;54.228;37.632;2022-10-18T07:31:35;99625.47;;;8.51;nan
72975;BME280;61166;54.228;37.632;2022-10-18T07:34:04;99598.56;;;8.43;nan
72975;BME280;61166;54.228;37.632;2022-10-18T07:36:30;99588.16;;;8.49;nan
72975;BME280;61166;54.228;37.632;2022-10-18T07:38:58;99562.91;;;8.27;nan
72975;BME280;61166;54.228;37.632;2022-10-18T07:41:25;99550.28;;;8.16;nan
72975;BME280;61166;54.228;37.632;2022-10-18T07:43:52;99546.59;;;8.10;nan
72975;BME280;61166;54.228;37.632;2022-10-18T07:46:20;99528.66;;;8.07;nan
72975;BME280;61166;54.228;37.632;2022-10-18T07:48:47;99515.78;;;8.12;nan
72975;BME280;61166;54.228;37.632;2022-10-18T07:51:14;99510.34;;;8.07;nan
72975;BME280;61166;54.228;37.632;2022-10-18T07:53:41;99490.13;;;8.01;nan
72975;BME280;61166;54.228;37.632;2022-10-18T07:56:10;99474.47;;;8.08;nan
72975;BME280;61166;54.228;37.632;2022-10-18T07:58:37;99461.16;;;8.09;nan
72975;BME280;61166;54.228;37.632;2022-10-18T08:01:05;99458.53;;;8.09;nan
72975;BME280;61166;54.228;37.632;2022-10-18T08:03:34;99453.13;;;8.11;nan
72975;BME280;61166;54.228;37.632;2022-10-18T08:06:01;99442.00;;;8.09;nan
72975;BME280;61166;54.228;37.632;2022-10-18T08:08:28;99422.47;;;8.05;nan
72975;BME280;61166;54.228;37.632;2022-10-18T08:11:01;99409.00;;;8.08;nan
72975;BME280;61166;54.228;37.632;2022-10-18T08:13:28;99393.06;;;8.09;nan
72975;BME280;61166;54.228;37.632;2022-10-18T08:16:03;99386.97;;;8.02;nan
72975;BME280;61166;54.228;37.632;2022-10-18T08:18:30;99387.59;;;8.04;nan
72975;BME280;61166;54.228;37.632;2022-10-18T08:21:01;99381.97;;;8.07;nan
72975;BME280;61166;54.228;37.632;2022-10-18T08:23:28;99375.56;;;8.16;nan
72975;BME280;61166;54.228;37.632;2022-10-18T08:25:55;99375.06;;;8.27;nan
72975;BME280;61166;54.228;37.632;2022-10-18T08:28:22;99368.88;;;8.35;nan
72975;BME280;61166;54.228;37.632;2022-10-18T08:30:49;99367.94;;;8.43;nan
72975;BME280;61166;54.228;37.632;2022-10-18T08:33:15;99351.47;;;8.55;nan
72975;BME280;61166;54.228;37.632;2022-10-18T08:35:42;99343.84;;;8.67;nan
72975;BME280;61166;54.228;37.632;2022-10-18T08:38:08;99336.81;;;8.74;nan
72975;BME280;61166;54.228;37.632;2022-10-18T08:40:35;99340.47;;;8.80;nan
72975;BME280;61166;54.228;37.632;2022-10-18T08:43:04;99343.13;;;8.86;nan
72975;BME280;61166;54.228;37.632;2022-10-18T08:45:35;99337.09;;;8.92;nan
72975;BME280;61166;54.228;37.632;2022-10-18T08:48:34;99304.66;;;9.07;nan
72975;BME280;61166;54.228;37.632;2022-10-18T08:51:04;99296.38;;;9.10;nan
72975;BME280;61166;54.228;37.632;2022-10-18T08:54:37;99285.31;;;9.21;nan
72975;BME280;61166;54.228;37.632;2022-10-18T08:56:32;99292.53;;;9.25;nan
72975;BME280;61166;54.228;37.632;2022-10-18T08:59:01;99288.31;;;9.31;nan
72975;BME280;61166;54.228;37.632;2022-10-18T09:04:29;99259.06;;;9.47;nan
72975;BME280;61166;54.228;37.632;2022-10-18T09:07:11;99245.31;;;9.58;nan
72975;BME280;61166;54.228;37.632;2022-10-18T09:09:51;99243.50;;;9.66;nan
72975;BME280;61166;54.228;37.632;2022-10-18T09:12:34;99228.97;;;9.63;nan
72975;BME280;61166;54.228;37.632;2022-10-18T09:20:55;99187.47;;;9.85;nan
72975;BME280;61166;54.228;37.632;2022-10-18T09:23:45;99154.31;;;9.97;nan
72975;BME280;61166;54.228;37.632;2022-10-18T09:26:18;99154.91;;;9.99;nan
72975;BME280;61166;54.228;37.632;2022-10-18T09:31:29;99154.00;;;10.32;nan
72975;BME280;61166;54.228;37.632;2022-10-18T09:34:07;99133.75;;;10.39;nan
72975;BME280;61166;54.228;37.632;2022-10-18T09:36:37;99129.56;;;10.56;nan
72975;BME280;61166;54.228;37.632;2022-10-18T09:39:10;99113.69;;;10.69;nan
72975;BME280;61166;54.228;37.632;2022-10-18T09:41:50;99112.25;;;10.73;nan
72975;BME280;61166;54.228;37.632;2022-10-18T09:44:33;99110.22;;;10.75;nan
72975;BME280;61166;54.228;37.632;2022-10-18T09:47:20;99079.34;;;10.89;nan
72975;BME280;61166;54.228;37.632;2022-10-18T09:50:03;99061.31;;;11.11;nan
72975;BME280;61166;54.228;37.632;2022-10-18T09:52:36;99058.09;;;11.09;nan
72975;BME280;61166;54.228;37.632;2022-10-18T09:55:21;99054.91;;;11.25;nan
72975;BME280;61166;54.228;37.632;2022-10-18T09:57:56;99063.38;;;11.27;nan
72975;BME280;61166;54.228;37.632;2022-10-18T10:00:28;99064.84;;;11.41;nan
72975;BME280;61166;54.228;37.632;2022-10-18T10:02:59;99046.34;;;11.48;nan
72975;BME280;61166;54.228;37.632;2022-10-18T10:05:26;99051.03;;;11.46;nan
72975;BME280;61166;54.228;37.632;2022-10-18T10:07:58;99042.00;;;11.72;nan
72975;BME280;61166;54.228;37.632;2022-10-18T10:10:26;99044.41;;;11.73;nan
72975;BME280;61166;54.228;37.632;2022-10-18T10:13:04;99020.47;;;11.93;nan
72975;BME280;61166;54.228;37.632;2022-10-18T10:15:32;99031.28;;;12.03;nan
72975;BME280;61166;54.228;37.632;2022-10-18T10:18:19;99039.09;;;12.10;nan
72975;BME280;61166;54.228;37.632;2022-10-18T10:20:50;99022.03;;;12.12;nan
72975;BME280;61166;54.228;37.632;2022-10-18T10:23:24;99016.28;;;12.15;nan
72975;BME280;61166;54.228;37.632;2022-10-18T10:25:54;99015.84;;;12.30;nan
72975;BME280;61166;54.228;37.632;2022-10-18T10:28:34;99003.03;;;12.34;nan
72975;BME280;61166;54.228;37.632;2022-10-18T10:36:49;98977.03;;;12.61;nan
72975;BME280;61166;54.228;37.632;2022-10-18T10:39:17;98964.06;;;12.59;nan
72975;BME280;61166;54.228;37.632;2022-10-18T10:41:51;98955.81;;;12.67;nan
72975;BME280;61166;54.228;37.632;2022-10-18T10:44:24;98956.63;;;12.68;nan
72975;BME280;61166;54.228;37.632;2022-10-18T10:46:52;98946.63;;;12.58;nan
72975;BME280;61166;54.228;37.632;2022-10-18T10:49:44;98947.97;;;12.72;nan
72975;BME280;61166;54.228;37.632;2022-10-18T10:52:17;98960.03;;;12.80;nan
72975;BME280;61166;54.228;37.632;2022-10-18T10:54:54;98954.72;;;12.92;nan
72975;BME280;61166;54.228;37.632;2022-10-18T10:57:37;98956.69;;;12.96;nan
72975;BME280;61166;54.228;37.632;2022-10-18T11:00:04;98969.53;;;12.93;nan
72975;BME280;61166;54.228;37.632;2022-10-18T11:02:33;98953.00;;;13.09;nan
72975;BME280;61166;54.228;37.632;2022-10-18T11:05:22;98959.88;;;13.10;nan
72975;BME280;61166;54.228;37.632;2022-10-18T11:07:51;98947.25;;;13.12;nan
72975;BME280;61166;54.228;37.632;2022-10-18T11:10:26;98967.56;;;13.23;nan
72975;BME280;61166;54.228;37.632;2022-10-18T11:13:04;98965.41;;;13.20;nan
72975;BME280;61166;54.228;37.632;2022-10-18T11:15:42;98971.88;;;13.29;nan
72975;BME280;61166;54.228;37.632;2022-10-18T11:18:24;98961.44;;;13.34;nan
72975;BME280;61166;54.228;37.632;2022-10-18T11:21:18;98967.19;;;13.31;nan
72975;BME280;61166;54.228;37.632;2022-10-18T11:23:47;98957.16;;;13.45;nan
72975;BME280;61166;54.228;37.632;2022-10-18T11:26:30;98970.59;;;13.43;nan
72975;BME280;61166;54.228;37.632;2022-10-18T11:32:03;98970.25;;;13.40;nan
72975;BME280;61166;54.228;37.632;2022-10-18T11:43:32;98986.31;;;13.50;nan
72975;BME280;61166;54.228;37.632;2022-10-18T11:46:50;98975.13;;;13.60;nan
72975;BME280;61166;54.228;37.632;2022-10-18T11:52:28;98972.16;;;13.56;nan
72975;BME280;61166;54.228;37.632;2022-10-18T11:55:21;98978.81;;;13.59;nan
72975;BME280;61166;54.228;37.632;2022-10-18T12:03:33;98973.09;;;13.78;nan
72975;BME280;61166;54.228;37.632;2022-10-18T12:06:11;98969.91;;;13.93;nan
72975;BME280;61166;54.228;37.632;2022-10-18T12:08:45;98979.88;;;14.03;nan
72975;BME280;61166;54.228;37.632;2022-10-18T12:11:27;98972.34;;;14.11;nan
72975;BME280;61166;54.228;37.632;2022-10-18T12:13:58;98960.16;;;14.10;nan
72975;BME280;61166;54.228;37.632;2022-10-18T12:16:36;98962.19;;;14.20;nan
72975;BME280;61166;54.228;37.632;2022-10-18T12:19:25;98965.00;;;14.30;nan
72975;BME280;61166;54.228;37.632;2022-10-18T12:21:56;98946.88;;;14.39;nan
72975;BME280;61166;54.228;37.632;2022-10-18T12:24:27;98966.78;;;14.41;nan
72975;BME280;61166;54.228;37.632;2022-10-18T12:26:59;98966.03;;;14.46;nan
72975;BME280;61166;54.228;37.632;2022-10-18T12:29:46;98963.94;;;14.48;nan
72975;BME280;61166;54.228;37.632;2022-10-18T12:32:27;98967.16;;;14.50;nan
72975;BME280;61166;54.228;37.632;2022-10-18T12:34:59;98975.66;;;14.52;nan
72975;BME280;61166;54.228;37.632;2022-10-18T12:40:54;98971.47;;;14.56;nan
72975;BME280;61166;54.228;37.632;2022-10-18T12:43:28;98979.91;;;14.53;nan
72975;BME280;61166;54.228;37.632;2022-10-18T12:45:57;98983.91;;;14.56;nan
72975;BME280;61166;54.228;37.632;2022-10-18T12:48:36;98980.53;;;14.60;nan
72975;BME280;61166;54.228;37.632;2022-10-18T12:53:39;98981.09;;;14.62;nan
72975;BME280;61166;54.228;37.632;2022-10-18T12:59:38;98989.03;;;14.62;nan
72975;BME280;61166;54.228;37.632;2022-10-18T13:17:45;98962.88;;;14.82;nan
72975;BME280;61166;54.228;37.632;2022-10-18T13:26:39;98959.59;;;14.75;nan
72975;BME280;61166;54.228;37.632;2022-10-18T13:34:36;98965.38;;;14.56;nan
72975;BME280;61166;54.228;37.632;2022-10-18T13:37:03;98972.94;;;14.47;nan
72975;BME280;61166;54.228;37.632;2022-10-18T13:39:31;98976.78;;;14.39;nan
72975;BME280;61166;54.228;37.632;2022-10-18T14:05:46;98963.59;;;14.11;nan
72975;BME280;61166;54.228;37.632;2022-10-18T14:08:19;98948.47;;;14.06;nan
72975;BME280;61166;54.228;37.632;2022-10-18T14:11:04;98946.38;;;14.08;nan
72975;BME280;61166;54.228;37.632;2022-10-18T14:16:26;98959.50;;;14.03;nan
72975;BME280;61166;54.228;37.632;2022-10-18T14:19:01;98964.81;;;14.03;nan
72975;BME280;61166;54.228;37.632;2022-10-18T14:21:35;98962.25;;;14.08;nan
72975;BME280;61166;54.228;37.632;2022-10-18T14:24:13;98968.00;;;14.05;nan
72975;BME280;61166;54.228;37.632;2022-10-18T14:26:41;98965.75;;;13.97;nan
72975;BME280;61166;54.228;37.632;2022-10-18T14:29:16;98974.41;;;13.93;nan
72975;BME280;61166;54.228;37.632;2022-10-18T14:31:52;98969.59;;;13.89;nan
72975;BME280;61166;54.228;37.632;2022-10-18T14:34:19;98976.16;;;13.87;nan
72975;BME280;61166;54.228;37.632;2022-10-18T14:36:47;98970.84;;;13.87;nan
72975;BME280;61166;54.228;37.632;2022-10-18T14:39:23;98971.13;;;13.85;nan
72975;BME280;61166;54.228;37.632;2022-10-18T14:41:54;98968.06;;;13.77;nan
72975;BME280;61166;54.228;37.632;2022-10-18T14:44:28;98971.28;;;13.79;nan
72975;BME280;61166;54.228;37.632;2022-10-18T14:47:00;98974.38;;;13.76;nan
72975;BME280;61166;54.228;37.632;2022-10-18T14:49:28;98968.91;;;13.66;nan
72975;BME280;61166;54.228;37.632;2022-10-18T14:51:57;98972.25;;;13.61;nan
72975;BME280;61166;54.228;37.632;2022-10-18T14:54:29;98971.47;;;13.61;nan
72975;BME280;61166;54.228;37.632;2022-10-18T14:56:59;98967.91;;;13.55;nan
72975;BME280;61166;54.228;37.632;2022-10-18T14:59:28;98963.81;;;13.47;nan
72975;BME280;61166;54.228;37.632;2022-10-18T15:02:01;98963.13;;;13.40;nan
72975;BME280;61166;54.228;37.632;2022-10-18T15:04:28;98959.25;;;13.31;nan
72975;BME280;61166;54.228;37.632;2022-10-18T15:06:56;98962.63;;;13.27;nan
72975;BME280;61166;54.228;37.632;2022-10-18T15:09:23;98956.63;;;13.31;nan
72975;BME280;61166;54.228;37.632;2022-10-18T15:11:50;98962.41;;;13.28;nan
72975;BME280;61166;54.228;37.632;2022-10-18T15:14:18;98975.03;;;13.26;nan
72975;BME280;61166;54.228;37.632;2022-10-18T15:16:46;98961.81;;;13.26;nan
72975;BME280;61166;54.228;37.632;2022-10-18T15:21:58;98975.53;;;13.40;nan
72975;BME280;61166;54.228;37.632;2022-10-18T15:27:35;98982.66;;;13.39;nan
72975;BME280;61166;54.228;37.632;2022-10-18T15:30:39;98985.78;;;13.36;nan
72975;BME280;61166;54.228;37.632;2022-10-18T15:33:07;98979.00;;;13.29;nan
72975;BME280;61166;54.228;37.632;2022-10-18T15:35:35;98974.81;;;13.16;nan
72975;BME280;61166;54.228;37.632;2022-10-18T15:38:21;98982.84;;;13.09;nan
72975;BME280;61166;54.228;37.632;2022-10-18T15:40:50;98988.47;;;13.01;nan
72975;BME280;61166;54.228;37.632;2022-10-18T15:45:57;98982.16;;;12.90;nan
72975;BME280;61166;54.228;37.632;2022-10-18T15:48:38;98975.06;;;12.79;nan